Time;durP1;ratioP1;P1;durP2;ratioP2;P2;SDS_P1;SDS_P2;PMS_P1;PMS_P2;Temp;Humidity;BMP_temperature;BMP_pressure;BME280_temperature;BME280_humidity;BME280_pressure;Samples;Min_cycle;Max_cycle;Signal;HPM_P1;HPM_P2
2022/03/04 00:01:36;;;;;;;2.23;1.57;;;0.70;98.00;;;;;;6275558;22;20421;-68
2022/03/04 00:04:03;;;;;;;1.33;1.30;;;0.80;98.00;;;;;;6275774;22;20459;-68
2022/03/04 00:06:32;;;;;;;1.63;1.53;;;0.80;98.00;;;;;;6275879;22;20396;-68
2022/03/04 00:08:59;;;;;;;1.97;1.87;;;0.90;98.00;;;;;;6248785;22;20398;-68
2022/03/04 00:11:26;;;;;;;3.57;3.17;;;1.00;98.00;;;;;;6275936;22;20401;-68
2022/03/04 00:13:53;;;;;;;1.20;1.20;;;1.00;98.00;;;;;;6275860;22;20453;-68
2022/03/04 00:16:20;;;;;;;2.43;1.83;;;0.90;98.00;;;;;;6276000;22;20693;-68
2022/03/04 00:19:06;;;;;;;4.37;2.20;;;0.80;98.00;;;;;;6275695;22;20438;-68
2022/03/04 00:35:04;;;;;;;3.13;2.93;;;0.60;98.00;;;;;;6221105;23;20425;-68
2022/03/04 00:37:31;;;;;;;1.63;1.57;;;0.70;98.00;;;;;;6268919;22;20444;-68
2022/03/04 00:39:58;;;;;;;4.10;2.67;;;0.70;98.00;;;;;;6274957;22;20470;-68
2022/03/04 00:42:27;;;;;;;2.17;1.63;;;0.70;98.00;;;;;;6275113;22;20401;-68
2022/03/04 00:44:54;;;;;;;2.90;2.20;;;0.50;98.00;;;;;;6275013;22;20404;-68
2022/03/04 00:47:22;;;;;;;2.23;1.83;;;0.40;98.00;;;;;;6275313;22;20440;-68
2022/03/04 00:49:49;;;;;;;2.63;2.20;;;0.40;98.00;;;;;;6275476;22;20403;-68
2022/03/04 00:52:18;;;;;;;1.60;1.60;;;0.30;98.00;;;;;;6275263;22;20432;-68
2022/03/04 00:54:45;;;;;;;1.50;1.40;;;0.30;98.00;;;;;;6275502;22;20416;-68
2022/03/04 00:57:12;;;;;;;1.20;1.10;;;0.40;98.00;;;;;;6275238;22;21061;-68
2022/03/04 00:59:42;;;;;;;3.97;2.10;;;0.40;98.00;;;;;;6274063;22;20433;-68
2022/03/04 01:02:09;;;;;;;3.33;1.93;;;0.50;98.00;;;;;;6275261;22;20192;-68
2022/03/04 01:04:36;;;;;;;2.23;1.53;;;0.60;98.00;;;;;;6275663;22;20471;-68
2022/03/04 01:07:04;;;;;;;4.27;2.30;;;0.50;98.00;;;;;;6275762;22;20448;-68
2022/03/04 01:09:32;;;;;;;2.30;2.10;;;0.60;98.00;;;;;;6275353;22;20921;-68
2022/03/04 01:11:59;;;;;;;2.90;2.30;;;0.40;98.00;;;;;;6275570;22;20404;-68
2022/03/04 01:14:26;;;;;;;1.77;1.70;;;0.30;98.00;;;;;;6274665;22;20416;-68
2022/03/04 01:16:53;;;;;;;3.57;1.93;;;0.40;98.00;;;;;;6248286;22;20423;-68
2022/03/04 01:19:20;;;;;;;2.23;1.80;;;0.50;98.00;;;;;;6275380;22;20439;-68
2022/03/04 01:21:47;;;;;;;1.50;1.50;;;0.30;98.00;;;;;;6277392;22;20543;-68
2022/03/04 01:24:15;;;;;;;2.50;2.10;;;0.40;98.00;;;;;;6276685;22;20449;-68
2022/03/04 01:26:49;;;;;;;2.40;2.20;;;0.20;98.00;;;;;;6277409;22;20436;-68
2022/03/04 01:29:18;;;;;;;1.33;1.23;;;0.30;98.00;;;;;;6276715;22;20898;-68
2022/03/04 01:31:45;;;;;;;1.27;1.23;;;0.40;98.00;;;;;;6276959;22;20866;-68
2022/03/04 01:34:12;;;;;;;2.40;2.27;;;0.50;98.00;;;;;;6277050;22;20433;-68
2022/03/04 01:36:39;;;;;;;2.17;1.80;;;0.30;98.00;;;;;;6277436;22;20734;-68
2022/03/04 01:39:07;;;;;;;1.57;1.47;;;0.20;98.00;;;;;;6250086;22;20875;-68
2022/03/04 01:41:34;;;;;;;1.93;1.90;;;0.30;98.00;;;;;;6277307;22;20761;-68
2022/03/04 01:44:02;;;;;;;1.20;1.10;;;0.20;98.00;;;;;;6276774;22;20898;-68
2022/03/04 01:46:31;;;;;;;2.90;2.23;;;0.20;98.00;;;;;;6276890;22;20454;-68
2022/03/04 01:48:59;;;;;;;2.40;2.10;;;0.10;98.00;;;;;;6276756;22;20430;-68
2022/03/04 01:51:26;;;;;;;1.20;1.10;;;-0.10;98.00;;;;;;6276916;22;20419;-68
2022/03/04 01:53:58;;;;;;;3.80;2.20;;;0.10;98.00;;;;;;6277104;22;20733;-68
2022/03/04 01:56:25;;;;;;;1.73;1.63;;;0.10;98.00;;;;;;6277511;22;20470;-68
2022/03/04 01:58:52;;;;;;;1.97;1.63;;;0.00;98.00;;;;;;6277285;22;20399;-68
2022/03/04 02:01:21;;;;;;;1.67;1.30;;;-0.10;98.00;;;;;;6276951;22;20428;-68
2022/03/04 02:03:48;;;;;;;1.97;1.87;;;-0.10;98.00;;;;;;6277020;22;20401;-68
2022/03/04 02:06:18;;;;;;;2.07;1.93;;;-0.20;98.00;;;;;;6277055;22;20485;-68
2022/03/04 02:08:45;;;;;;;6.10;3.43;;;-0.30;98.00;;;;;;6276469;22;20403;-68
2022/03/04 02:11:13;;;;;;;1.93;1.83;;;-0.40;98.00;;;;;;6276710;22;20416;-68
2022/03/04 02:13:42;;;;;;;2.83;2.13;;;-0.30;98.00;;;;;;6276757;22;20446;-68
2022/03/04 02:16:18;;;;;;;1.90;1.73;;;-0.30;98.00;;;;;;6276870;22;20434;-68
2022/03/04 02:18:47;;;;;;;1.20;1.20;;;-0.30;98.00;;;;;;6276365;22;20431;-67
2022/03/04 02:21:15;;;;;;;1.70;1.60;;;-0.30;98.00;;;;;;6276762;22;20560;-68
2022/03/04 02:23:43;;;;;;;3.00;2.70;;;-0.40;98.00;;;;;;6276693;22;20458;-68
2022/03/04 02:26:10;;;;;;;1.80;1.70;;;-0.40;98.00;;;;;;6276809;22;20397;-68
2022/03/04 02:28:37;;;;;;;4.73;3.20;;;-0.60;98.00;;;;;;6249732;22;20412;-68
2022/03/04 02:31:04;;;;;;;2.07;1.83;;;-0.50;98.00;;;;;;6275954;22;20427;-68
2022/03/04 02:33:31;;;;;;;3.60;2.80;;;-0.40;98.00;;;;;;6276528;22;20451;-68
2022/03/04 02:36:00;;;;;;;6.63;1.60;;;-0.40;98.00;;;;;;6276713;22;20691;-68
2022/03/04 02:38:27;;;;;;;2.07;1.93;;;-0.50;98.00;;;;;;6249887;22;20436;-67
2022/03/04 02:40:55;;;;;;;1.93;1.57;;;-0.50;98.00;;;;;;6249769;22;20431;-68
2022/03/04 02:43:22;;;;;;;1.77;1.60;;;-0.40;98.00;;;;;;6276320;22;20866;-67
2022/03/04 02:45:51;;;;;;;1.37;1.33;;;-0.40;98.00;;;;;;6276607;22;20400;-68
2022/03/04 02:48:18;;;;;;;2.23;2.03;;;-0.40;98.00;;;;;;6276207;22;20419;-68
2022/03/04 02:50:45;;;;;;;4.10;3.23;;;-0.40;98.00;;;;;;6276701;22;20400;-68
2022/03/04 02:53:12;;;;;;;2.07;1.80;;;-0.50;98.00;;;;;;6276441;22;20406;-68
2022/03/04 02:55:39;;;;;;;1.40;1.40;;;-0.60;98.00;;;;;;6276049;22;20426;-67
2022/03/04 02:58:08;;;;;;;2.50;1.90;;;-0.60;98.00;;;;;;6276386;22;20403;-68
2022/03/04 03:00:35;;;;;;;1.93;1.80;;;-0.50;98.00;;;;;;6276111;22;20426;-67
2022/03/04 03:03:02;;;;;;;1.20;1.10;;;-0.50;98.00;;;;;;6275902;22;20461;-68
2022/03/04 03:05:29;;;;;;;1.80;1.50;;;-0.50;98.00;;;;;;6276081;22;20453;-68
2022/03/04 03:07:56;;;;;;;1.97;1.73;;;-0.50;98.00;;;;;;6249097;22;20400;-67
2022/03/04 03:10:23;;;;;;;1.37;1.20;;;-0.50;98.00;;;;;;6276195;22;20403;-68
2022/03/04 03:12:51;;;;;;;1.70;1.50;;;-0.50;98.00;;;;;;6276390;22;20403;-67
2022/03/04 03:15:19;;;;;;;1.50;1.40;;;-0.50;98.00;;;;;;6276083;22;20402;-67
2022/03/04 03:17:46;;;;;;;1.73;1.63;;;-0.70;98.00;;;;;;6276359;22;20449;-67
2022/03/04 03:20:13;;;;;;;3.73;2.40;;;-0.70;98.00;;;;;;6275702;22;20880;-68
2022/03/04 03:22:40;;;;;;;2.53;1.97;;;-0.70;98.00;;;;;;6276016;22;20458;-67
2022/03/04 03:25:09;;;;;;;1.57;1.50;;;-0.90;98.00;;;;;;6249272;22;20418;-68
2022/03/04 03:27:36;;;;;;;2.37;1.70;;;-0.90;98.00;;;;;;6276096;22;20436;-68
2022/03/04 03:30:05;;;;;;;1.60;1.50;;;-1.00;98.00;;;;;;6275785;22;20424;-67
2022/03/04 03:32:35;;;;;;;1.57;1.53;;;-1.00;98.00;;;;;;6276163;22;20489;-68
2022/03/04 03:35:02;;;;;;;2.80;2.13;;;-0.90;98.00;;;;;;6275750;22;20407;-67
2022/03/04 03:37:29;;;;;;;1.70;1.60;;;-0.90;98.00;;;;;;6276104;22;20405;-67
2022/03/04 03:39:55;;;;;;;2.80;2.30;;;-1.00;98.00;;;;;;6276144;22;20431;-67
2022/03/04 03:42:23;;;;;;;1.50;1.40;;;-0.90;98.00;;;;;;6275247;22;20435;-68
2022/03/04 03:44:50;;;;;;;3.13;1.77;;;-0.80;98.00;;;;;;6275836;22;20958;-67
2022/03/04 03:47:17;;;;;;;1.40;1.30;;;-1.00;98.00;;;;;;6275795;22;20915;-68
2022/03/04 03:49:45;;;;;;;1.43;1.40;;;-0.90;98.00;;;;;;6275569;22;20408;-67
2022/03/04 03:52:12;;;;;;;2.47;2.27;;;-0.90;98.00;;;;;;6275930;22;20483;-68
2022/03/04 03:54:39;;;;;;;2.03;1.90;;;-0.90;98.00;;;;;;6275724;22;20425;-68
2022/03/04 03:57:07;;;;;;;1.20;1.20;;;-1.00;98.00;;;;;;6248869;22;20403;-67
2022/03/04 03:59:34;;;;;;;1.67;1.60;;;-1.00;98.00;;;;;;6275946;22;20408;-67
2022/03/04 04:02:02;;;;;;;2.23;2.03;;;-1.10;98.00;;;;;;6275639;22;20470;-67
2022/03/04 04:04:34;;;;;;;2.20;2.00;;;-1.10;98.00;;;;;;6275750;22;20430;-68
2022/03/04 04:07:03;;;;;;;1.60;1.60;;;-1.20;98.00;;;;;;6275448;22;20394;-68
2022/03/04 04:09:30;;;;;;;1.83;1.73;;;-1.20;98.00;;;;;;6275715;22;20757;-68
2022/03/04 04:11:57;;;;;;;2.30;1.80;;;-1.30;98.00;;;;;;6248917;22;20395;-67
2022/03/04 04:14:24;;;;;;;2.53;1.90;;;-1.30;98.00;;;;;;6275351;22;20436;-68
2022/03/04 04:16:51;;;;;;;1.83;1.77;;;-1.40;98.00;;;;;;6275450;22;20400;-67
2022/03/04 04:19:18;;;;;;;1.30;1.20;;;-1.40;98.00;;;;;;6275363;22;20397;-67
2022/03/04 04:21:44;;;;;;;2.13;2.00;;;-1.50;98.00;;;;;;6275540;22;20441;-68
2022/03/04 04:24:13;;;;;;;1.40;1.33;;;-1.40;98.00;;;;;;6275549;22;20441;-67
2022/03/04 04:26:40;;;;;;;1.27;1.23;;;-1.30;98.00;;;;;;6275798;22;20398;-67
2022/03/04 04:29:07;;;;;;;1.20;1.20;;;-1.30;98.00;;;;;;6275510;22;20399;-67
2022/03/04 04:31:35;;;;;;;1.70;1.63;;;-1.30;98.00;;;;;;6275703;22;20410;-67
2022/03/04 04:34:03;;;;;;;1.40;1.33;;;-1.30;98.00;;;;;;6275309;22;20940;-67
2022/03/04 04:36:30;;;;;;;9.90;3.30;;;-1.30;98.00;;;;;;6275840;22;20455;-67
2022/03/04 04:38:57;;;;;;;1.87;1.70;;;-1.20;98.00;;;;;;6275240;22;20429;-67
2022/03/04 04:41:26;;;;;;;1.40;1.30;;;-1.40;98.00;;;;;;6275256;22;20442;-68
2022/03/04 04:43:53;;;;;;;1.30;1.17;;;-1.30;98.00;;;;;;6275173;22;20400;-67
2022/03/04 04:46:20;;;;;;;2.03;1.60;;;-1.40;98.00;;;;;;6275423;22;20457;-67
2022/03/04 04:48:47;;;;;;;1.87;1.77;;;-1.40;98.00;;;;;;6275282;22;20410;-68
2022/03/04 04:51:14;;;;;;;1.20;1.10;;;-1.40;98.00;;;;;;6274821;22;20436;-67
2022/03/04 04:53:41;;;;;;;2.17;1.87;;;-1.30;98.00;;;;;;6274098;22;20433;-67
2022/03/04 04:56:08;;;;;;;2.60;2.40;;;-1.40;98.00;;;;;;6247424;22;20398;-67
2022/03/04 04:58:37;;;;;;;2.63;2.13;;;-1.50;98.00;;;;;;6274499;22;20475;-67
2022/03/04 05:01:04;;;;;;;1.43;1.40;;;-1.40;98.00;;;;;;6275041;22;21140;-67
2022/03/04 05:03:31;;;;;;;1.57;1.47;;;-1.30;98.00;;;;;;6275244;22;20408;-67
2022/03/04 05:05:58;;;;;;;2.03;1.90;;;-1.30;98.00;;;;;;6275292;22;20397;-67
2022/03/04 05:08:26;;;;;;;1.57;1.50;;;-1.50;98.00;;;;;;6275066;22;20430;-67
2022/03/04 05:10:54;;;;;;;1.20;1.07;;;-1.70;98.00;;;;;;6275477;22;20440;-67
2022/03/04 05:13:21;;;;;;;2.47;2.23;;;-1.60;98.00;;;;;;6275008;22;20402;-67
2022/03/04 05:15:50;;;;;;;1.50;1.40;;;-1.40;98.00;;;;;;6275191;22;20402;-67
2022/03/04 05:18:17;;;;;;;1.40;1.30;;;-1.40;98.00;;;;;;6274982;22;20976;-67
2022/03/04 05:20:44;;;;;;;1.70;1.60;;;-1.40;98.00;;;;;;6275264;22;20748;-67
2022/03/04 05:23:58;;;;;;;3.03;2.50;;;-1.30;98.00;;;;;;6275529;22;20734;-67
2022/03/04 05:25:58;;;;;;;2.50;2.10;;;-1.30;98.00;;;;;;6274866;22;20885;-67
2022/03/04 05:28:25;;;;;;;2.90;2.53;;;-1.60;98.00;;;;;;6248513;22;20405;-67
2022/03/04 05:30:54;;;;;;;4.73;3.50;;;-1.80;98.00;;;;;;6275174;22;20455;-67
2022/03/04 05:33:21;;;;;;;2.70;1.70;;;-1.80;98.00;;;;;;6274998;22;20425;-67
2022/03/04 05:35:50;;;;;;;2.80;2.03;;;-1.80;98.00;;;;;;6274831;22;20399;-67
2022/03/04 05:38:17;;;;;;;1.10;1.00;;;-1.70;98.00;;;;;;6274891;22;20777;-67
2022/03/04 05:40:45;;;;;;;3.20;2.20;;;-1.60;98.00;;;;;;6274849;22;20437;-67
2022/03/04 05:43:12;;;;;;;1.87;1.77;;;-1.60;98.00;;;;;;6248061;22;20403;-67
2022/03/04 05:45:39;;;;;;;3.73;2.80;;;-1.60;98.00;;;;;;6274744;22;20434;-67
2022/03/04 05:48:07;;;;;;;2.30;2.10;;;-1.50;98.00;;;;;;6272942;22;20415;-68
2022/03/04 05:50:34;;;;;;;2.50;2.20;;;-1.60;98.00;;;;;;6274629;22;20885;-67
2022/03/04 05:53:01;;;;;;;2.50;2.20;;;-1.90;98.00;;;;;;6275133;22;20394;-67
2022/03/04 05:55:28;;;;;;;1.67;1.57;;;-2.00;98.00;;;;;;6274982;22;20420;-67
2022/03/04 05:57:55;;;;;;;2.60;2.23;;;-2.00;98.00;;;;;;6274848;22;20399;-68
2022/03/04 06:00:22;;;;;;;2.40;1.53;;;-2.00;98.00;;;;;;6248015;22;20395;-68
2022/03/04 06:02:49;;;;;;;2.17;1.67;;;-2.00;98.00;;;;;;6248517;22;20434;-68
2022/03/04 06:05:18;;;;;;;2.13;1.50;;;-1.90;98.00;;;;;;6275500;22;21120;-67
2022/03/04 06:07:48;;;;;;;1.83;1.77;;;-2.00;98.00;;;;;;6276883;22;20433;-68
2022/03/04 06:10:16;;;;;;;1.87;1.50;;;-2.10;98.00;;;;;;6275297;22;20413;-68
2022/03/04 06:12:48;;;;;;;2.13;1.67;;;-2.00;98.00;;;;;;6277200;22;20394;-68
2022/03/04 06:15:15;;;;;;;5.47;3.63;;;-1.90;98.00;;;;;;6249684;22;20420;-68
2022/03/04 06:17:46;;;;;;;1.50;1.40;;;-1.90;98.00;;;;;;6277397;22;20403;-67
2022/03/04 06:20:14;;;;;;;2.38;1.63;;;-1.90;98.00;;;;;;6276669;22;20401;-67
2022/03/04 06:22:43;;;;;;;4.80;1.53;;;-1.80;98.00;;;;;;6276921;22;20510;-68
2022/03/04 06:25:11;;;;;;;2.47;2.30;;;-1.90;98.00;;;;;;6276145;22;20411;-68
2022/03/04 06:27:39;;;;;;;1.40;1.30;;;-2.10;98.00;;;;;;6276583;22;20480;-68
2022/03/04 06:30:06;;;;;;;7.63;2.50;;;-2.10;98.00;;;;;;6275912;22;20430;-67
2022/03/04 06:32:33;;;;;;;2.00;1.85;;;-2.00;98.00;;;;;;6276339;22;20478;-68
2022/03/04 06:35:00;;;;;;;1.30;1.25;;;-1.90;98.00;;;;;;6276518;22;20195;-68
2022/03/04 06:37:28;;;;;;;2.13;1.88;;;-1.80;98.00;;;;;;6276375;22;20193;-67
2022/03/04 06:39:56;;;;;;;2.40;2.23;;;-1.70;98.00;;;;;;6276544;22;20535;-67
2022/03/04 06:42:24;;;;;;;2.80;1.83;;;-1.80;98.00;;;;;;6276610;22;20482;-68
2022/03/04 06:44:52;;;;;;;10.48;3.20;;;-1.70;98.00;;;;;;6249331;22;20399;-68
2022/03/04 06:47:19;;;;;;;2.27;2.07;;;-1.60;98.00;;;;;;6276517;22;20228;-68
2022/03/04 06:49:46;;;;;;;2.80;2.10;;;-1.70;98.00;;;;;;6276192;22;20402;-67
2022/03/04 06:52:13;;;;;;;2.17;1.83;;;-1.70;98.00;;;;;;6276494;22;21025;-68
2022/03/04 06:54:40;;;;;;;1.70;1.70;;;-1.70;98.00;;;;;;6276103;22;20860;-68
2022/03/04 06:57:08;;;;;;;1.50;1.50;;;-1.50;98.00;;;;;;6276586;22;20398;-68
2022/03/04 06:59:35;;;;;;;1.20;1.20;;;-1.30;98.00;;;;;;6276242;22;20489;-67
2022/03/04 07:02:06;;;;;;;2.27;1.87;;;-1.30;98.00;;;;;;6276498;22;20477;-68
2022/03/04 07:04:33;;;;;;;1.90;1.83;;;-1.50;98.00;;;;;;6275808;22;20441;-67
2022/03/04 07:07:01;;;;;;;2.20;2.00;;;-1.30;98.00;;;;;;6276365;22;20409;-68
2022/03/04 07:09:28;;;;;;;5.67;3.53;;;-1.20;98.00;;;;;;6249178;22;20536;-68
2022/03/04 07:11:56;;;;;;;2.20;1.73;;;-1.20;98.00;;;;;;6276629;22;20423;-68
2022/03/04 07:14:27;;;;;;;5.27;3.57;;;-1.10;98.00;;;;;;6248940;22;21018;-67
2022/03/04 07:16:54;;;;;;;1.60;1.50;;;-1.10;98.00;;;;;;6275785;22;20407;-67
2022/03/04 07:19:21;;;;;;;3.37;3.20;;;-1.10;98.00;;;;;;6275916;22;20427;-68
2022/03/04 07:21:48;;;;;;;1.97;1.77;;;-1.10;98.00;;;;;;6276039;22;21023;-68
2022/03/04 07:24:15;;;;;;;3.57;3.03;;;-1.10;98.00;;;;;;6275773;22;20402;-68
2022/03/04 07:26:42;;;;;;;2.40;2.07;;;-1.10;98.00;;;;;;6275492;22;20455;-68
2022/03/04 07:29:22;;;;;;;3.27;3.10;;;-1.20;98.00;;;;;;6275795;22;20471;-68
2022/03/04 07:31:53;;;;;;;3.47;2.33;;;-1.20;98.00;;;;;;6251648;22;20449;-67
2022/03/04 07:34:20;;;;;;;1.97;1.87;;;-1.10;98.00;;;;;;6275759;22;20425;-68
2022/03/04 07:36:47;;;;;;;3.30;3.00;;;-1.10;98.00;;;;;;6276043;22;20757;-67
2022/03/04 07:39:15;;;;;;;3.40;1.57;;;-1.10;98.00;;;;;;6275406;22;20430;-68
2022/03/04 07:41:42;;;;;;;2.80;2.60;;;-0.90;98.00;;;;;;6274137;22;20442;-68
2022/03/04 07:44:10;;;;;;;2.93;2.10;;;-0.80;98.00;;;;;;6248864;22;20427;-67
2022/03/04 07:46:37;;;;;;;1.60;1.50;;;-0.70;98.00;;;;;;6275991;22;20473;-68
2022/03/04 07:49:06;;;;;;;1.30;1.30;;;-0.50;98.00;;;;;;6276087;22;20407;-68
2022/03/04 07:51:33;;;;;;;1.50;1.40;;;-0.40;98.00;;;;;;6275557;22;20406;-68
2022/03/04 07:54:00;;;;;;;1.93;1.83;;;-0.30;98.00;;;;;;6275883;22;20439;-68
2022/03/04 07:56:27;;;;;;;2.97;2.33;;;-0.30;98.00;;;;;;6276183;22;20509;-68
2022/03/04 07:58:54;;;;;;;1.77;1.47;;;-0.20;98.00;;;;;;6275283;22;20423;-67
2022/03/04 08:01:34;;;;;;;2.40;2.20;;;-0.10;98.00;;;;;;6249449;22;20400;-67
2022/03/04 08:04:01;;;;;;;1.20;1.20;;;0.00;98.00;;;;;;6275506;22;20399;-67
2022/03/04 08:06:29;;;;;;;1.73;1.60;;;0.10;98.00;;;;;;6275857;22;20737;-67
2022/03/04 08:08:56;;;;;;;2.13;1.90;;;0.20;98.00;;;;;;6275610;22;20407;-68
2022/03/04 08:11:23;;;;;;;1.57;1.47;;;0.50;98.00;;;;;;6275252;22;20399;-67
2022/03/04 08:13:51;;;;;;;5.27;2.90;;;0.70;98.00;;;;;;6275579;22;20399;-68
2022/03/04 08:16:18;;;;;;;2.93;2.73;;;0.80;98.00;;;;;;6275104;22;20777;-68
2022/03/04 08:18:45;;;;;;;4.40;3.10;;;0.90;98.00;;;;;;6273804;22;20437;-67
2022/03/04 08:21:12;;;;;;;4.20;3.10;;;1.10;98.00;;;;;;6247101;22;20442;-68
2022/03/04 08:23:40;;;;;;;2.50;2.30;;;1.30;98.00;;;;;;6275418;22;20186;-67
2022/03/04 08:26:16;;;;;;;1.20;1.07;;;1.60;98.00;;;;;;6275611;22;20413;-68
2022/03/04 08:28:43;;;;;;;2.13;1.97;;;1.70;98.00;;;;;;6273670;22;20429;-70
2022/03/04 08:31:11;;;;;;;2.83;2.63;;;1.80;98.00;;;;;;6273955;22;20425;-70
2022/03/04 08:33:38;;;;;;;1.70;1.67;;;2.00;98.00;;;;;;6274107;22;20794;-71
2022/03/04 08:36:09;;;;;;;4.40;2.90;;;2.10;98.00;;;;;;6272944;22;20404;-70
2022/03/04 08:38:37;;;;;;;2.57;2.43;;;2.30;98.00;;;;;;6272832;22;20396;-70
2022/03/04 08:41:06;;;;;;;1.97;1.80;;;2.40;98.00;;;;;;6274111;22;20445;-70
2022/03/04 08:43:34;;;;;;;2.47;2.20;;;2.50;98.00;;;;;;6274013;22;20451;-71
2022/03/04 08:46:02;;;;;;;2.27;2.10;;;2.70;98.00;;;;;;6273930;22;20454;-71
2022/03/04 08:48:28;;;;;;;2.83;2.63;;;2.80;98.00;;;;;;6274056;22;20401;-70
2022/03/04 08:50:56;;;;;;;1.60;1.60;;;3.00;98.00;;;;;;6273748;22;20397;-71
2022/03/04 08:53:23;;;;;;;2.27;2.10;;;3.10;97.20;;;;;;6274091;22;20429;-71
2022/03/04 08:55:50;;;;;;;2.97;1.90;;;3.20;96.30;;;;;;6274534;22;20689;-70
2022/03/04 08:58:19;;;;;;;1.30;1.27;;;3.40;95.80;;;;;;6274534;22;20404;-70
2022/03/04 09:00:46;;;;;;;1.70;1.30;;;3.60;95.70;;;;;;6273809;22;20408;-70
2022/03/04 09:03:15;;;;;;;2.67;2.47;;;3.80;95.20;;;;;;6274093;22;20436;-70
2022/03/04 09:05:42;;;;;;;3.77;2.67;;;4.00;94.40;;;;;;6247418;22;20451;-70
2022/03/04 09:08:09;;;;;;;1.93;1.90;;;4.20;93.30;;;;;;6273816;22;20397;-70
2022/03/04 09:10:42;;;;;;;8.30;3.23;;;4.30;92.30;;;;;;6273656;22;20397;-71
2022/03/04 09:13:12;;;;;;;1.80;1.73;;;4.50;92.30;;;;;;6245793;22;20418;-70
2022/03/04 09:15:40;;;;;;;2.53;2.23;;;4.70;91.10;;;;;;6273759;22;20403;-70
2022/03/04 09:18:08;;;;;;;1.93;1.87;;;4.90;90.60;;;;;;6273703;22;20403;-69
2022/03/04 09:20:38;;;;;;;2.50;2.30;;;5.00;90.10;;;;;;6273875;22;20448;-70
2022/03/04 09:23:06;;;;;;;4.20;2.43;;;5.20;89.30;;;;;;6273739;22;20427;-69
2022/03/04 09:25:33;;;;;;;1.60;1.50;;;5.40;87.80;;;;;;6273748;22;20485;-70
2022/03/04 09:28:02;;;;;;;5.10;3.03;;;5.50;87.40;;;;;;6273988;22;20403;-70
2022/03/04 09:30:31;;;;;;;3.50;2.97;;;5.60;87.60;;;;;;6273298;22;20451;-70
2022/03/04 09:32:59;;;;;;;4.10;2.23;;;5.80;86.90;;;;;;6273871;22;20423;-71
2022/03/04 09:35:26;;;;;;;2.63;2.37;;;6.00;86.40;;;;;;6273822;22;20763;-70
2022/03/04 09:37:53;;;;;;;4.27;2.80;;;6.20;85.40;;;;;;6273690;22;20453;-70
2022/03/04 09:40:20;;;;;;;3.30;2.27;;;6.40;84.20;;;;;;6274081;22;20413;-70
2022/03/04 09:42:47;;;;;;;4.63;2.13;;;6.50;84.40;;;;;;6275772;22;20514;-72
2022/03/04 09:45:14;;;;;;;6.17;3.13;;;6.70;83.50;;;;;;6275722;22;20443;-71
2022/03/04 09:47:48;;;;;;;3.30;2.70;;;6.80;82.90;;;;;;6275422;22;20454;-72
2022/03/04 09:50:18;;;;;;;5.73;3.13;;;6.90;83.10;;;;;;6274985;22;20470;-73
2022/03/04 09:52:46;;;;;;;1.93;1.77;;;7.10;82.50;;;;;;6248848;22;20466;-70
2022/03/04 09:55:13;;;;;;;3.17;2.70;;;7.30;82.10;;;;;;6275537;22;20399;-72
2022/03/04 09:57:42;;;;;;;3.03;2.30;;;7.50;82.00;;;;;;6275519;22;20408;-72
2022/03/04 10:00:11;;;;;;;2.37;1.63;;;7.70;81.10;;;;;;6275147;22;20418;-70
2022/03/04 10:02:44;;;;;;;3.63;2.47;;;7.80;80.60;;;;;;6274608;22;20427;-71
2022/03/04 10:05:12;;;;;;;2.27;2.10;;;8.00;79.80;;;;;;6275185;22;20431;-69
2022/03/04 10:07:44;;;;;;;2.20;2.10;;;8.10;77.20;;;;;;6275696;22;20394;-69
2022/03/04 10:10:16;;;;;;;2.50;1.90;;;8.30;80.30;;;;;;6275689;22;20433;-69
2022/03/04 10:12:52;;;;;;;1.20;1.20;;;8.70;79.60;;;;;;6275657;22;20452;-70
2022/03/04 10:15:19;;;;;;;1.60;1.53;;;9.10;85.70;;;;;;6275418;22;20864;-71
2022/03/04 10:17:58;;;;;;;4.37;2.57;;;9.80;85.40;;;;;;6275354;22;20937;-67
2022/03/04 10:20:42;;;;;;;4.43;2.50;;;10.20;75.90;;;;;;6275810;22;20400;-72
2022/03/04 10:23:17;;;;;;;3.93;2.67;;;10.80;78.50;;;;;;6273300;22;20440;-72
2022/03/04 10:25:48;;;;;;;2.97;2.43;;;11.10;76.70;;;;;;6275808;22;20731;-72
2022/03/04 10:28:16;;;;;;;3.90;2.60;;;11.40;76.30;;;;;;6275458;22;20402;-72
2022/03/04 10:30:46;;;;;;;3.63;2.30;;;11.20;70.70;;;;;;6275334;22;20425;-71
2022/03/04 10:33:16;;;;;;;4.70;2.90;;;11.10;70.00;;;;;;6275404;22;20411;-71
2022/03/04 10:35:44;;;;;;;2.23;1.77;;;10.60;69.10;;;;;;6276136;22;20944;-72
2022/03/04 10:38:26;;;;;;;3.90;2.70;;;10.60;69.20;;;;;;6275227;22;20449;-71
2022/03/04 10:40:55;;;;;;;2.57;2.27;;;10.60;69.60;;;;;;6275056;22;20866;-72
2022/03/04 10:43:37;;;;;;;5.43;3.77;;;10.70;69.40;;;;;;6274627;22;20984;-70
2022/03/04 10:46:06;;;;;;;4.10;2.90;;;10.60;69.10;;;;;;6274424;22;20400;-71
2022/03/04 10:48:34;;;;;;;2.67;2.20;;;10.50;69.00;;;;;;6275469;22;20403;-71
2022/03/04 10:51:05;;;;;;;7.23;2.20;;;10.40;68.30;;;;;;6273882;22;20432;-71
2022/03/04 10:53:34;;;;;;;4.77;3.13;;;10.60;67.80;;;;;;6275318;22;20398;-72
2022/03/04 10:56:04;;;;;;;2.07;1.97;;;10.70;68.30;;;;;;6275310;22;20428;-73
2022/03/04 10:58:34;;;;;;;4.63;2.60;;;10.80;67.90;;;;;;6275363;22;20401;-71
2022/03/04 11:01:05;;;;;;;3.30;2.97;;;11.00;66.90;;;;;;6274889;22;20492;-70
2022/03/04 11:03:34;;;;;;;2.73;2.00;;;11.10;67.20;;;;;;6275019;22;20810;-71
2022/03/04 11:06:03;;;;;;;3.00;2.33;;;11.40;68.00;;;;;;6275186;22;20401;-72
2022/03/04 11:08:30;;;;;;;3.10;2.03;;;11.60;66.80;;;;;;6274835;22;20865;-70
2022/03/04 11:10:59;;;;;;;6.50;2.90;;;11.80;66.80;;;;;;6275245;22;20424;-71
2022/03/04 11:13:29;;;;;;;3.13;2.07;;;12.10;66.60;;;;;;6275413;22;20402;-67
2022/03/04 11:15:57;;;;;;;2.10;1.83;;;12.00;65.30;;;;;;6274543;22;20934;-71
2022/03/04 11:18:24;;;;;;;4.20;2.47;;;12.10;65.80;;;;;;6275086;22;20428;-70
2022/03/04 11:20:59;;;;;;;3.17;2.97;;;12.40;65.40;;;;;;6274403;22;20396;-70
2022/03/04 11:23:27;;;;;;;7.20;3.30;;;12.40;63.30;;;;;;6274275;22;20432;-71
2022/03/04 11:25:59;;;;;;;2.50;2.30;;;12.30;63.50;;;;;;6275156;22;20426;-70
2022/03/04 11:28:29;;;;;;;4.43;2.33;;;12.60;63.60;;;;;;6275040;22;20404;-72
2022/03/04 11:31:00;;;;;;;3.30;2.13;;;12.80;61.10;;;;;;6274826;22;20429;-71
2022/03/04 11:33:30;;;;;;;4.33;2.53;;;13.00;60.50;;;;;;6275310;22;20397;-70
2022/03/04 11:36:09;;;;;;;2.43;2.10;;;13.20;59.60;;;;;;6275056;22;20483;-73
2022/03/04 11:39:08;;;;;;;2.90;2.07;;;13.40;60.60;;;;;;6274669;22;20412;-69
2022/03/04 11:41:39;;;;;;;3.37;2.47;;;13.60;59.90;;;;;;6274408;22;20406;-71
2022/03/04 11:44:17;;;;;;;2.27;1.70;;;13.80;59.80;;;;;;6274797;22;20436;-70
2022/03/04 11:46:52;;;;;;;2.40;1.80;;;13.90;59.00;;;;;;6274506;22;20407;-71
2022/03/04 11:49:31;;;;;;;3.03;1.90;;;14.00;57.80;;;;;;6273476;22;20396;-71
2022/03/04 11:52:27;;;;;;;3.73;2.03;;;14.00;59.30;;;;;;6274488;22;21102;-72
2022/03/04 11:55:13;;;;;;;2.97;2.07;;;14.20;57.50;;;;;;6274304;22;20403;-70
2022/03/04 11:57:44;;;;;;;3.03;2.33;;;14.20;57.50;;;;;;6274543;22;20472;-71
2022/03/04 12:00:26;;;;;;;4.53;3.33;;;14.40;58.20;;;;;;6274632;22;20445;-70
2022/03/04 12:02:56;;;;;;;3.23;2.50;;;14.60;57.30;;;;;;6274524;22;20709;-71
2022/03/04 12:05:26;;;;;;;7.13;3.30;;;14.90;57.50;;;;;;6274567;22;20709;-70
2022/03/04 12:08:12;;;;;;;2.30;1.83;;;14.70;57.60;;;;;;6274489;22;20402;-70
2022/03/04 12:10:50;;;;;;;2.27;2.03;;;15.00;57.60;;;;;;6284456;22;20418;-71
2022/03/04 12:13:26;;;;;;;2.50;1.67;;;15.10;57.20;;;;;;6274729;22;20469;-71
2022/03/04 12:16:03;;;;;;;2.37;1.90;;;15.30;56.20;;;;;;6274181;22;20914;-71
2022/03/04 12:18:38;;;;;;;2.43;1.83;;;15.20;56.20;;;;;;6274579;22;20478;-71
2022/03/04 12:21:10;;;;;;;3.00;2.03;;;15.40;56.50;;;;;;6274791;22;20437;-71
2022/03/04 12:23:39;;;;;;;3.43;2.27;;;15.40;56.50;;;;;;6274706;22;20514;-71
2022/03/04 12:26:20;;;;;;;5.13;2.63;;;15.50;56.60;;;;;;6247069;22;20439;-70
2022/03/04 12:28:50;;;;;;;8.80;3.23;;;15.40;55.80;;;;;;6274803;22;20398;-73
2022/03/04 12:31:20;;;;;;;2.87;1.77;;;15.50;55.40;;;;;;6274162;22;20909;-73
2022/03/04 12:33:54;;;;;;;2.27;2.10;;;15.40;55.10;;;;;;6274409;22;20453;-72
2022/03/04 12:36:23;;;;;;;3.50;2.87;;;15.50;55.50;;;;;;6274429;22;20500;-71
2022/03/04 12:38:53;;;;;;;4.80;3.37;;;15.40;55.60;;;;;;6274330;22;20501;-70
2022/03/04 12:41:22;;;;;;;3.63;2.43;;;15.50;55.30;;;;;;6274451;22;20419;-71
2022/03/04 12:43:52;;;;;;;5.30;3.00;;;15.60;54.50;;;;;;6273964;22;20436;-72
2022/03/04 12:46:20;;;;;;;5.70;2.63;;;16.00;54.40;;;;;;6274401;22;20759;-71
2022/03/04 12:48:48;;;;;;;5.03;2.30;;;16.10;53.40;;;;;;6274381;22;20463;-70
2022/03/04 12:51:25;;;;;;;2.60;2.40;;;15.80;53.10;;;;;;6273337;22;20430;-71
2022/03/04 12:53:53;;;;;;;3.00;2.00;;;16.20;53.30;;;;;;6274570;22;20708;-71
2022/03/04 12:56:22;;;;;;;8.20;2.30;;;16.40;53.30;;;;;;6273200;22;20926;-70
2022/03/04 12:58:57;;;;;;;2.63;2.50;;;16.20;53.60;;;;;;6273951;22;20399;-71
2022/03/04 13:01:26;;;;;;;4.70;2.83;;;16.40;53.80;;;;;;6283482;22;20428;-70
2022/03/04 13:03:55;;;;;;;4.00;2.80;;;16.80;52.10;;;;;;6274308;22;20425;-71
2022/03/04 13:06:24;;;;;;;4.87;2.37;;;16.80;51.80;;;;;;6246924;22;20459;-69
2022/03/04 13:08:53;;;;;;;4.33;3.07;;;16.80;51.80;;;;;;6274021;22;20465;-70
2022/03/04 13:11:23;;;;;;;4.97;3.13;;;17.00;52.40;;;;;;6274536;22;20407;-69
2022/03/04 13:13:55;;;;;;;5.50;3.50;;;17.10;51.70;;;;;;6274523;22;21025;-70